Time;durP1;ratioP1;P1;durP2;ratioP2;P2;SDS_P1;SDS_P2;PMS_P1;PMS_P2;Temp;Humidity;BMP_temperature;BMP_pressure;BME280_temperature;BME280_humidity;BME280_pressure;Samples;Min_cycle;Max_cycle;Signal;HPM_P1;HPM_P2
2023/09/25 00:00:34;;;;;;;16.42;1.77;;;;;;;;;;5079760;28;20776;-81
2023/09/25 00:03:03;;;;;;;14.88;1.60;;;;;;;;;;5073553;28;20403;-82
2023/09/25 00:05:31;;;;;;;14.90;1.90;;;;;;;;;;5059796;28;20416;-79
2023/09/25 00:07:57;;;;;;;14.70;1.50;;;;;;;;;;5079869;28;21290;-80
2023/09/25 00:10:25;;;;;;;15.02;2.00;;;;;;;;;;5071785;28;20401;-81
2023/09/25 00:12:52;;;;;;;15.23;1.90;;;;;;;;;;5072941;28;21128;-81
2023/09/25 00:15:19;;;;;;;15.68;1.80;;;;;;;;;;5070972;28;20970;-79
2023/09/25 00:17:45;;;;;;;15.43;1.80;;;;;;;;;;5073773;28;20413;-78
2023/09/25 00:20:12;;;;;;;15.57;1.70;;;;;;;;;;5056174;28;20477;-80
2023/09/25 00:22:39;;;;;;;15.20;2.22;;;;;;;;;;5075014;28;20398;-81
2023/09/25 00:25:06;;;;;;;14.85;1.65;;;;;;;;;;5073644;28;20408;-81
2023/09/25 00:27:34;;;;;;;14.40;1.60;;;;;;;;;;5053861;28;20461;-80
2023/09/25 00:30:04;;;;;;;15.30;1.92;;;;;;;;;;5075703;28;20471;-80
2023/09/25 00:32:30;;;;;;;15.80;2.30;;;;;;;;;;5053252;28;20408;-80
2023/09/25 00:34:58;;;;;;;15.10;1.70;;;;;;;;;;5054675;28;20473;-80
2023/09/25 00:37:25;;;;;;;15.60;1.80;;;;;;;;;;5073272;28;20932;-78
2023/09/25 00:39:52;;;;;;;15.70;2.10;;;;;;;;;;5075529;28;20494;-82
2023/09/25 00:42:19;;;;;;;15.80;1.70;;;;;;;;;;5070749;28;20917;-81
2023/09/25 00:44:47;;;;;;;15.10;1.90;;;;;;;;;;5057293;28;20409;-79
2023/09/25 00:47:13;;;;;;;15.52;2.30;;;;;;;;;;5079341;28;20480;-79
2023/09/25 00:49:40;;;;;;;15.25;1.73;;;;;;;;;;5077254;28;20899;-81
2023/09/25 00:52:07;;;;;;;16.75;1.55;;;;;;;;;;5068136;28;20406;-80
2023/09/25 00:54:33;;;;;;;15.50;2.45;;;;;;;;;;5082550;28;20404;-80
2023/09/25 00:57:07;;;;;;;16.13;1.90;;;;;;;;;;5073605;28;20402;-81
2023/09/25 00:59:36;;;;;;;15.85;1.75;;;;;;;;;;5082843;28;20418;-81
2023/09/25 01:02:04;;;;;;;15.20;1.90;;;;;;;;;;5075259;28;20412;-77
2023/09/25 01:04:31;;;;;;;16.30;1.80;;;;;;;;;;5065150;28;20957;-81
2023/09/25 01:06:58;;;;;;;15.30;2.10;;;;;;;;;;5077613;28;20491;-82
2023/09/25 01:09:25;;;;;;;15.85;1.80;;;;;;;;;;5076655;28;20429;-82
2023/09/25 01:11:51;;;;;;;17.17;2.08;;;;;;;;;;5081017;28;20406;-79
2023/09/25 01:14:18;;;;;;;15.23;2.30;;;;;;;;;;5077064;28;20495;-79
2023/09/25 01:16:44;;;;;;;15.05;2.00;;;;;;;;;;5074747;28;20910;-80
2023/09/25 01:19:13;;;;;;;14.90;1.95;;;;;;;;;;5055669;28;20916;-78
2023/09/25 01:21:44;;;;;;;15.00;2.03;;;;;;;;;;5081939;28;20849;-81
2023/09/25 01:24:11;;;;;;;16.98;2.58;;;;;;;;;;5078857;28;20401;-81
2023/09/25 01:26:37;;;;;;;15.17;1.90;;;;;;;;;;5060807;28;20524;-81
2023/09/25 01:29:04;;;;;;;15.20;2.10;;;;;;;;;;5067725;28;20410;-78
2023/09/25 01:31:31;;;;;;;17.48;1.83;;;;;;;;;;5070922;28;20443;-80
2023/09/25 01:33:58;;;;;;;15.30;2.20;;;;;;;;;;5076490;28;20415;-80
2023/09/25 01:36:25;;;;;;;15.90;1.80;;;;;;;;;;5067742;28;20409;-79
2023/09/25 01:38:53;;;;;;;15.10;1.92;;;;;;;;;;5071697;28;20418;-81
2023/09/25 01:41:20;;;;;;;14.70;1.70;;;;;;;;;;5071544;28;20448;-80
2023/09/25 01:43:46;;;;;;;18.13;2.10;;;;;;;;;;5080511;28;20510;-80
2023/09/25 01:46:14;;;;;;;15.10;1.80;;;;;;;;;;5072638;28;20488;-81
2023/09/25 01:48:41;;;;;;;17.15;2.10;;;;;;;;;;5071002;28;20411;-80
2023/09/25 01:51:08;;;;;;;15.20;1.90;;;;;;;;;;5070710;28;20412;-80
2023/09/25 01:53:35;;;;;;;15.13;2.20;;;;;;;;;;5067218;28;20787;-81
2023/09/25 01:56:09;;;;;;;15.13;1.98;;;;;;;;;;5069894;28;20447;-81
2023/09/25 01:58:36;;;;;;;15.37;2.47;;;;;;;;;;5068592;28;20424;-79
2023/09/25 02:01:03;;;;;;;16.10;2.47;;;;;;;;;;5060785;28;20442;-79
2023/09/25 02:03:30;;;;;;;15.35;1.90;;;;;;;;;;5076548;28;20447;-79
2023/09/25 02:05:57;;;;;;;16.20;2.10;;;;;;;;;;5057966;28;20419;-81
2023/09/25 02:08:28;;;;;;;16.00;1.90;;;;;;;;;;5067760;28;20761;-80
2023/09/25 02:10:55;;;;;;;15.30;2.00;;;;;;;;;;5078264;28;20490;-81
2023/09/25 02:13:23;;;;;;;15.80;1.98;;;;;;;;;;5075637;28;20401;-79
2023/09/25 02:15:51;;;;;;;15.00;1.90;;;;;;;;;;5076602;28;20484;-81
2023/09/25 02:18:18;;;;;;;15.73;2.10;;;;;;;;;;5060211;28;20462;-80
2023/09/25 02:20:45;;;;;;;15.13;1.95;;;;;;;;;;5076454;28;20421;-78
2023/09/25 02:23:12;;;;;;;16.60;2.00;;;;;;;;;;5069917;28;20407;-79
2023/09/25 02:25:39;;;;;;;16.70;1.93;;;;;;;;;;5076761;28;20396;-80
2023/09/25 02:28:06;;;;;;;15.00;2.00;;;;;;;;;;5073048;28;20534;-79
2023/09/25 02:30:34;;;;;;;15.30;2.10;;;;;;;;;;5057893;28;20450;-79
2023/09/25 02:33:00;;;;;;;16.70;2.00;;;;;;;;;;5081627;28;20467;-79
2023/09/25 02:35:27;;;;;;;15.48;2.15;;;;;;;;;;5084248;28;20483;-80
2023/09/25 02:37:54;;;;;;;15.13;2.00;;;;;;;;;;5071427;28;20473;-80
2023/09/25 02:40:20;;;;;;;15.45;1.73;;;;;;;;;;5066488;28;20429;-81
2023/09/25 02:42:47;;;;;;;16.13;1.88;;;;;;;;;;5068519;28;20506;-81
2023/09/25 02:45:15;;;;;;;16.80;2.10;;;;;;;;;;5065129;28;20410;-79
2023/09/25 02:47:43;;;;;;;16.92;2.40;;;;;;;;;;5073923;28;20882;-81
2023/09/25 02:50:10;;;;;;;15.60;1.90;;;;;;;;;;5064371;28;20414;-79
2023/09/25 02:52:37;;;;;;;15.10;1.92;;;;;;;;;;5069743;28;20463;-78
2023/09/25 02:55:04;;;;;;;15.20;2.17;;;;;;;;;;5074618;28;20492;-78
2023/09/25 02:57:30;;;;;;;15.50;2.30;;;;;;;;;;5077769;28;20402;-80
2023/09/25 02:59:57;;;;;;;15.60;2.13;;;;;;;;;;5062402;28;20421;-81
2023/09/25 03:02:25;;;;;;;15.73;2.30;;;;;;;;;;5082626;28;20917;-81
2023/09/25 03:04:54;;;;;;;15.20;2.40;;;;;;;;;;5057489;28;20490;-78
2023/09/25 03:07:21;;;;;;;15.20;2.10;;;;;;;;;;5075253;28;20407;-79
2023/09/25 03:09:48;;;;;;;16.77;2.30;;;;;;;;;;5076995;28;20405;-80
2023/09/25 03:12:15;;;;;;;15.60;2.33;;;;;;;;;;5052232;28;20960;-79
2023/09/25 03:14:42;;;;;;;15.57;2.00;;;;;;;;;;5064546;28;20412;-80
2023/09/25 03:17:09;;;;;;;16.15;2.42;;;;;;;;;;5071591;28;20910;-78
2023/09/25 03:19:38;;;;;;;15.57;2.30;;;;;;;;;;5076125;28;20412;-78
2023/09/25 03:22:06;;;;;;;15.00;2.00;;;;;;;;;;5079334;28;20413;-78
2023/09/25 03:24:32;;;;;;;16.30;2.20;;;;;;;;;;5073909;28;20968;-80
2023/09/25 03:26:59;;;;;;;16.83;2.33;;;;;;;;;;5080189;28;20407;-80
2023/09/25 03:29:26;;;;;;;15.20;2.40;;;;;;;;;;5078666;28;20410;-80
2023/09/25 03:31:52;;;;;;;16.52;2.47;;;;;;;;;;5075987;28;20411;-79
2023/09/25 03:34:20;;;;;;;15.70;2.58;;;;;;;;;;5071465;28;20415;-81
2023/09/25 03:36:48;;;;;;;17.00;3.58;;;;;;;;;;5078515;28;20418;-79
2023/09/25 03:39:19;;;;;;;15.75;2.58;;;;;;;;;;5057191;28;20451;-81
2023/09/25 03:41:46;;;;;;;15.80;2.30;;;;;;;;;;5088540;28;20426;-80
2023/09/25 03:44:13;;;;;;;16.40;2.50;;;;;;;;;;5076344;28;20405;-78
2023/09/25 03:46:40;;;;;;;15.77;2.72;;;;;;;;;;5070440;28;20399;-79
2023/09/25 03:49:07;;;;;;;16.23;2.50;;;;;;;;;;5070857;28;20403;-79
2023/09/25 03:51:34;;;;;;;16.92;2.70;;;;;;;;;;5073453;28;20796;-78
2023/09/25 03:54:00;;;;;;;15.73;2.40;;;;;;;;;;5070117;28;21055;-79
2023/09/25 03:56:29;;;;;;;15.50;2.30;;;;;;;;;;5071346;28;20417;-80
2023/09/25 03:58:55;;;;;;;16.45;2.45;;;;;;;;;;5081350;28;20415;-80
2023/09/25 04:01:22;;;;;;;17.95;2.92;;;;;;;;;;5077436;28;20433;-80
2023/09/25 04:03:49;;;;;;;16.30;2.60;;;;;;;;;;5071233;28;20491;-80
2023/09/25 04:06:18;;;;;;;16.77;2.40;;;;;;;;;;5075821;28;20403;-79
2023/09/25 04:08:45;;;;;;;19.52;2.60;;;;;;;;;;5075575;28;20500;-81
2023/09/25 04:11:11;;;;;;;16.30;2.70;;;;;;;;;;5087484;28;20812;-78
2023/09/25 04:13:40;;;;;;;15.80;2.60;;;;;;;;;;5071391;28;20813;-78
2023/09/25 04:16:06;;;;;;;16.27;2.50;;;;;;;;;;5064303;28;20419;-78
2023/09/25 04:18:33;;;;;;;15.90;2.50;;;;;;;;;;5077704;28;20415;-81
2023/09/25 04:21:02;;;;;;;16.57;2.30;;;;;;;;;;5065454;28;20420;-79
2023/09/25 04:23:29;;;;;;;16.20;2.63;;;;;;;;;;5071658;28;20445;-80
2023/09/25 04:26:00;;;;;;;16.70;2.60;;;;;;;;;;5070085;28;20477;-80
2023/09/25 04:28:32;;;;;;;15.70;2.70;;;;;;;;;;5068943;28;20797;-80
2023/09/25 04:31:04;;;;;;;16.27;2.65;;;;;;;;;;5078701;28;20459;-78
2023/09/25 04:33:32;;;;;;;17.10;2.72;;;;;;;;;;5076052;28;20942;-80
2023/09/25 04:36:01;;;;;;;15.80;2.35;;;;;;;;;;5074420;28;20828;-80
2023/09/25 04:38:28;;;;;;;15.18;2.38;;;;;;;;;;5064815;28;20409;-80
2023/09/25 04:40:57;;;;;;;17.20;2.55;;;;;;;;;;5073351;28;20471;-80
2023/09/25 04:43:23;;;;;;;17.08;2.47;;;;;;;;;;5081795;28;20402;-81
2023/09/25 04:45:52;;;;;;;17.08;2.80;;;;;;;;;;5074098;28;20417;-80
2023/09/25 04:48:20;;;;;;;15.90;2.53;;;;;;;;;;5069903;28;20407;-80
2023/09/25 04:50:46;;;;;;;16.83;2.72;;;;;;;;;;5066972;28;20403;-79
2023/09/25 04:53:13;;;;;;;17.20;2.40;;;;;;;;;;5077216;28;20758;-78
2023/09/25 04:55:40;;;;;;;16.67;2.40;;;;;;;;;;5075606;28;20413;-79
2023/09/25 04:58:07;;;;;;;15.88;2.60;;;;;;;;;;5071918;28;20443;-81
2023/09/25 05:00:34;;;;;;;16.13;2.30;;;;;;;;;;5071135;28;20465;-80
2023/09/25 05:03:01;;;;;;;15.77;3.00;;;;;;;;;;5072234;28;20402;-80
2023/09/25 05:05:29;;;;;;;16.08;2.65;;;;;;;;;;5080003;28;20418;-79
2023/09/25 05:07:56;;;;;;;15.40;2.30;;;;;;;;;;5071052;28;20398;-81
2023/09/25 05:10:23;;;;;;;16.98;2.90;;;;;;;;;;5075564;28;20405;-81
2023/09/25 05:12:50;;;;;;;16.35;2.67;;;;;;;;;;5072297;28;20402;-79
2023/09/25 05:15:17;;;;;;;16.75;2.42;;;;;;;;;;5073385;28;20410;-82
2023/09/25 05:17:44;;;;;;;15.30;2.15;;;;;;;;;;5057505;28;20457;-78
2023/09/25 05:20:12;;;;;;;15.32;2.40;;;;;;;;;;5071792;28;20516;-80
2023/09/25 05:22:41;;;;;;;15.50;2.25;;;;;;;;;;5071902;28;20821;-80
2023/09/25 05:25:08;;;;;;;20.30;2.70;;;;;;;;;;5059612;28;20486;-80
2023/09/25 05:27:35;;;;;;;15.50;2.60;;;;;;;;;;5073998;28;20413;-79
2023/09/25 05:30:02;;;;;;;15.60;2.30;;;;;;;;;;5072752;28;20494;-81
2023/09/25 05:32:29;;;;;;;16.80;2.80;;;;;;;;;;5062497;28;20491;-79
2023/09/25 05:34:56;;;;;;;16.40;2.60;;;;;;;;;;5056641;28;20466;-78
2023/09/25 05:37:22;;;;;;;21.13;2.50;;;;;;;;;;5074793;28;20736;-80
2023/09/25 05:39:50;;;;;;;15.67;2.40;;;;;;;;;;5050750;28;20412;-79
2023/09/25 05:42:17;;;;;;;16.73;2.60;;;;;;;;;;5078110;28;20429;-77
2023/09/25 05:44:43;;;;;;;16.23;2.50;;;;;;;;;;5075193;28;20496;-79
2023/09/25 05:47:11;;;;;;;16.17;2.60;;;;;;;;;;5073243;28;20403;-77
2023/09/25 05:49:37;;;;;;;15.10;2.20;;;;;;;;;;5077239;28;20418;-77
2023/09/25 05:52:04;;;;;;;16.60;2.20;;;;;;;;;;5074988;28;20404;-77
2023/09/25 05:54:31;;;;;;;15.48;2.30;;;;;;;;;;5073493;28;20438;-77
2023/09/25 05:56:59;;;;;;;15.55;2.42;;;;;;;;;;5084136;28;20945;-77
2023/09/25 05:59:25;;;;;;;15.88;2.40;;;;;;;;;;5077837;28;20411;-80
2023/09/25 06:01:55;;;;;;;16.08;2.30;;;;;;;;;;5067960;28;20820;-78
2023/09/25 06:04:21;;;;;;;15.70;2.42;;;;;;;;;;5073445;28;20400;-78
2023/09/25 06:06:48;;;;;;;15.15;2.05;;;;;;;;;;5076808;28;20448;-78
2023/09/25 06:09:15;;;;;;;16.10;2.00;;;;;;;;;;5082926;28;20505;-78
2023/09/25 06:11:42;;;;;;;16.97;2.30;;;;;;;;;;5071798;28;20410;-78
2023/09/25 06:14:10;;;;;;;15.00;2.00;;;;;;;;;;5067672;28;20402;-80
2023/09/25 06:16:39;;;;;;;15.20;1.97;;;;;;;;;;5074194;28;20487;-78
2023/09/25 06:19:08;;;;;;;15.57;2.30;;;;;;;;;;5080256;28;20438;-79
2023/09/25 06:21:35;;;;;;;15.45;2.03;;;;;;;;;;5073665;28;20421;-80
2023/09/25 06:24:03;;;;;;;16.02;2.10;;;;;;;;;;5064178;28;20412;-80
2023/09/25 06:26:30;;;;;;;17.58;2.35;;;;;;;;;;5067697;28;20746;-80
2023/09/25 06:28:58;;;;;;;15.65;2.10;;;;;;;;;;5085551;28;20480;-80
2023/09/25 06:31:28;;;;;;;15.60;2.10;;;;;;;;;;5080794;28;20400;-81
2023/09/25 06:33:55;;;;;;;15.90;2.00;;;;;;;;;;5052260;28;20412;-79
2023/09/25 06:36:21;;;;;;;18.08;2.70;;;;;;;;;;5076132;28;20408;-79
2023/09/25 06:38:48;;;;;;;16.77;2.30;;;;;;;;;;5076082;28;20415;-79
2023/09/25 06:41:15;;;;;;;15.45;2.15;;;;;;;;;;5081954;28;20423;-80
2023/09/25 06:43:41;;;;;;;15.18;2.00;;;;;;;;;;5068131;28;20969;-80
2023/09/25 06:46:08;;;;;;;16.70;2.50;;;;;;;;;;5075880;28;20900;-80
2023/09/25 06:48:36;;;;;;;15.20;2.00;;;;;;;;;;5068929;28;20508;-80
2023/09/25 06:51:03;;;;;;;15.02;1.90;;;;;;;;;;5077843;28;20409;-81
2023/09/25 06:53:30;;;;;;;14.88;1.90;;;;;;;;;;5076225;28;20892;-80
2023/09/25 06:55:57;;;;;;;17.05;2.20;;;;;;;;;;5071751;28;20426;-79
2023/09/25 06:58:23;;;;;;;15.10;1.90;;;;;;;;;;5069214;28;20437;-80
2023/09/25 07:00:50;;;;;;;17.87;2.20;;;;;;;;;;5067223;28;20411;-79
2023/09/25 07:03:23;;;;;;;16.67;2.20;;;;;;;;;;5077492;28;20405;-82
2023/09/25 07:05:53;;;;;;;15.07;1.92;;;;;;;;;;5069734;28;20442;-80
2023/09/25 07:08:19;;;;;;;16.40;2.60;;;;;;;;;;5078910;28;20404;-80
2023/09/25 07:10:46;;;;;;;14.63;1.90;;;;;;;;;;5073026;28;20415;-78
2023/09/25 07:13:13;;;;;;;16.40;2.50;;;;;;;;;;5071297;28;20434;-81
2023/09/25 07:15:39;;;;;;;16.63;1.92;;;;;;;;;;5071623;28;20426;-81
2023/09/25 07:18:06;;;;;;;16.17;2.13;;;;;;;;;;5073425;28;20438;-81
2023/09/25 07:20:33;;;;;;;15.07;1.80;;;;;;;;;;5049235;28;20446;-82
2023/09/25 07:23:01;;;;;;;15.45;2.30;;;;;;;;;;5087035;28;20498;-79
2023/09/25 07:25:28;;;;;;;16.55;1.80;;;;;;;;;;5068591;28;20415;-80
2023/09/25 07:27:55;;;;;;;15.45;1.90;;;;;;;;;;5075501;28;20411;-80
2023/09/25 07:30:23;;;;;;;15.60;1.90;;;;;;;;;;5077288;28;20897;-79
2023/09/25 07:32:49;;;;;;;16.40;1.73;;;;;;;;;;5078702;28;20419;-78
2023/09/25 07:35:16;;;;;;;15.45;1.88;;;;;;;;;;5077233;28;20435;-81
2023/09/25 07:37:44;;;;;;;15.63;2.33;;;;;;;;;;5057974;28;20420;-81
2023/09/25 07:40:14;;;;;;;15.32;2.10;;;;;;;;;;5076871;28;20444;-80
2023/09/25 07:42:42;;;;;;;16.55;1.70;;;;;;;;;;5081156;28;20418;-80
2023/09/25 07:45:22;;;;;;;17.00;2.28;;;;;;;;;;5077766;28;20471;-80
2023/09/25 07:47:49;;;;;;;15.77;1.95;;;;;;;;;;5066500;28;20404;-83
2023/09/25 07:50:19;;;;;;;15.20;1.70;;;;;;;;;;5071914;28;20425;-80
2023/09/25 07:52:46;;;;;;;15.60;1.70;;;;;;;;;;5072799;28;20412;-80
2023/09/25 07:55:15;;;;;;;16.02;2.10;;;;;;;;;;5080589;28;20875;-80
2023/09/25 07:57:43;;;;;;;16.20;1.90;;;;;;;;;;5072571;28;20421;-80
2023/09/25 08:02:52;;;;;;;16.45;1.67;;;;;;;;;;5058250;28;20436;-80
2023/09/25 08:05:19;;;;;;;15.20;1.80;;;;;;;;;;5075602;28;20466;-80
2023/09/25 08:07:46;;;;;;;14.90;1.70;;;;;;;;;;5061880;28;20414;-78
2023/09/25 08:10:12;;;;;;;15.10;1.90;;;;;;;;;;5061915;28;20766;-80
2023/09/25 08:12:41;;;;;;;15.35;2.10;;;;;;;;;;5072065;28;20410;-82
2023/09/25 08:15:08;;;;;;;15.35;1.90;;;;;;;;;;5083670;28;20425;-82
2023/09/25 08:17:34;;;;;;;15.93;1.80;;;;;;;;;;5061101;28;20558;-80
2023/09/25 08:20:01;;;;;;;15.70;1.70;;;;;;;;;;5080069;28;20428;-81
2023/09/25 08:22:30;;;;;;;14.93;1.88;;;;;;;;;;5062544;28;20423;-81
2023/09/25 08:24:57;;;;;;;15.90;1.50;;;;;;;;;;5075153;28;20415;-80
2023/09/25 08:27:24;;;;;;;15.63;1.83;;;;;;;;;;5063680;28;20511;-78
2023/09/25 08:29:52;;;;;;;15.48;1.67;;;;;;;;;;5071791;28;20399;-80
2023/09/25 08:32:18;;;;;;;16.67;1.70;;;;;;;;;;5068450;28;20421;-80
2023/09/25 08:34:45;;;;;;;14.73;1.42;;;;;;;;;;5066307;28;20409;-79
2023/09/25 08:37:12;;;;;;;14.68;1.60;;;;;;;;;;5059688;28;20424;-79
2023/09/25 08:39:39;;;;;;;15.63;2.00;;;;;;;;;;5067385;28;20415;-79
2023/09/25 08:42:06;;;;;;;14.40;1.60;;;;;;;;;;5079530;28;20502;-78
2023/09/25 08:44:33;;;;;;;15.02;2.08;;;;;;;;;;5079156;28;20470;-81
2023/09/25 08:47:01;;;;;;;15.30;1.90;;;;;;;;;;5066487;28;20499;-78
2023/09/25 08:49:29;;;;;;;15.32;1.60;;;;;;;;;;5057316;28;20549;-82
2023/09/25 08:51:57;;;;;;;15.48;1.80;;;;;;;;;;5068686;28;20402;-80
2023/09/25 08:54:26;;;;;;;15.70;1.90;;;;;;;;;;5076603;28;20402;-81
2023/09/25 08:56:53;;;;;;;15.30;1.80;;;;;;;;;;5073060;28;20429;-78
2023/09/25 08:59:20;;;;;;;14.90;1.42;;;;;;;;;;5069628;28;20825;-81
2023/09/25 09:01:47;;;;;;;15.50;1.67;;;;;;;;;;5058274;28;20523;-81
2023/09/25 09:04:16;;;;;;;14.60;1.60;;;;;;;;;;5056558;28;20475;-79
2023/09/25 09:06:42;;;;;;;16.27;1.75;;;;;;;;;;5083243;28;20421;-81
2023/09/25 09:09:11;;;;;;;15.93;1.80;;;;;;;;;;5053566;28;20446;-79
2023/09/25 09:11:39;;;;;;;14.60;1.70;;;;;;;;;;5073306;28;20402;-80
2023/09/25 09:14:06;;;;;;;15.20;1.80;;;;;;;;;;5087012;28;20428;-83
2023/09/25 09:16:33;;;;;;;15.20;1.60;;;;;;;;;;5082158;28;20409;-79
2023/09/25 09:19:05;;;;;;;14.35;1.40;;;;;;;;;;5086066;28;20952;-80
2023/09/25 09:21:35;;;;;;;14.70;1.73;;;;;;;;;;5072490;28;20868;-80
2023/09/25 09:24:04;;;;;;;15.15;1.75;;;;;;;;;;5050368;28;20742;-79
2023/09/25 09:26:32;;;;;;;15.15;1.70;;;;;;;;;;5071170;28;20400;-78
2023/09/25 09:28:59;;;;;;;15.40;1.98;;;;;;;;;;5066799;28;20497;-80
2023/09/25 09:31:25;;;;;;;15.18;1.70;;;;;;;;;;5083532;28;20438;-79
2023/09/25 09:33:53;;;;;;;14.68;1.60;;;;;;;;;;5079777;28;20459;-78
2023/09/25 09:36:20;;;;;;;16.70;1.60;;;;;;;;;;5082536;28;20451;-76
2023/09/25 09:38:51;;;;;;;14.40;1.40;;;;;;;;;;5072406;28;20439;-79
2023/09/25 09:41:19;;;;;;;15.20;1.70;;;;;;;;;;5066392;28;20419;-82
2023/09/25 09:43:46;;;;;;;15.88;1.60;;;;;;;;;;5057440;28;20496;-80
2023/09/25 09:46:15;;;;;;;15.20;1.67;;;;;;;;;;5079312;28;20496;-82
2023/09/25 09:48:46;;;;;;;14.63;1.50;;;;;;;;;;5075038;28;20407;-82
2023/09/25 09:51:17;;;;;;;15.00;1.70;;;;;;;;;;5076480;28;20401;-79
2023/09/25 09:53:45;;;;;;;14.30;1.60;;;;;;;;;;5075940;28;20436;-80
2023/09/25 09:56:13;;;;;;;14.60;1.50;;;;;;;;;;5061025;28;20508;-80
2023/09/25 09:58:40;;;;;;;15.23;1.70;;;;;;;;;;5049772;28;20447;-81
2023/09/25 10:01:07;;;;;;;16.13;1.65;;;;;;;;;;5072273;28;20414;-81
2023/09/25 10:03:34;;;;;;;14.70;1.52;;;;;;;;;;5066655;28;20417;-80
2023/09/25 10:06:02;;;;;;;14.70;1.40;;;;;;;;;;5071134;28;20463;-78
2023/09/25 10:08:29;;;;;;;15.00;1.50;;;;;;;;;;5080317;28;20410;-80
2023/09/25 10:11:14;;;;;;;15.90;1.50;;;;;;;;;;5060309;28;20453;-81
2023/09/25 10:13:43;;;;;;;15.00;1.30;;;;;;;;;;5061607;28;20399;-79
2023/09/25 10:16:12;;;;;;;14.57;1.80;;;;;;;;;;5062583;28;20819;-80
2023/09/25 10:18:41;;;;;;;14.60;1.40;;;;;;;;;;5077422;28;20463;-80
2023/09/25 10:21:10;;;;;;;17.60;1.77;;;;;;;;;;5078437;28;20420;-81
2023/09/25 10:23:39;;;;;;;14.52;1.20;;;;;;;;;;5060185;28;20938;-81
2023/09/25 10:26:08;;;;;;;16.27;1.70;;;;;;;;;;5091903;28;20399;-84
2023/09/25 10:28:37;;;;;;;14.65;1.50;;;;;;;;;;5058988;28;20885;-80
2023/09/25 10:31:18;;;;;;;16.42;1.65;;;;;;;;;;5073314;28;20419;-80
2023/09/25 10:33:52;;;;;;;14.43;1.30;;;;;;;;;;5071878;28;20607;-80
2023/09/25 10:36:19;;;;;;;15.40;1.40;;;;;;;;;;5073083;28;20440;-81
2023/09/25 10:38:52;;;;;;;15.70;1.40;;;;;;;;;;5068546;28;20508;-80
2023/09/25 10:41:21;;;;;;;14.50;1.30;;;;;;;;;;5083602;28;20418;-81
2023/09/25 10:43:48;;;;;;;15.27;1.70;;;;;;;;;;5062283;28;20453;-81
2023/09/25 10:46:17;;;;;;;14.90;1.40;;;;;;;;;;5070478;28;20416;-80
2023/09/25 10:48:46;;;;;;;14.70;1.50;;;;;;;;;;5087482;28;20516;-80
2023/09/25 10:51:15;;;;;;;14.10;1.30;;;;;;;;;;5080314;28;20411;-83
2023/09/25 10:53:42;;;;;;;14.50;1.40;;;;;;;;;;5078117;28;20491;-81
2023/09/25 10:56:11;;;;;;;14.65;1.60;;;;;;;;;;5068713;28;20427;-80
2023/09/25 10:58:38;;;;;;;15.77;1.50;;;;;;;;;;5077493;28;20568;-78
2023/09/25 11:01:05;;;;;;;14.20;1.40;;;;;;;;;;5076227;28;20519;-80
2023/09/25 11:03:37;;;;;;;14.75;1.60;;;;;;;;;;5077692;28;20510;-79
2023/09/25 11:06:04;;;;;;;14.00;1.33;;;;;;;;;;5081592;28;20412;-80
2023/09/25 11:08:33;;;;;;;14.30;1.40;;;;;;;;;;5057064;28;20507;-81
2023/09/25 11:11:02;;;;;;;14.90;1.30;;;;;;;;;;5072248;28;20413;-79
2023/09/25 11:13:29;;;;;;;14.30;1.60;;;;;;;;;;5077008;28;20474;-78
2023/09/25 11:15:57;;;;;;;14.18;1.30;;;;;;;;;;5074496;28;20504;-79
2023/09/25 11:18:24;;;;;;;15.32;1.70;;;;;;;;;;5076696;28;20411;-80
2023/09/25 11:20:52;;;;;;;14.10;1.20;;;;;;;;;;5073366;28;20427;-80
2023/09/25 11:23:19;;;;;;;14.32;1.40;;;;;;;;;;5073412;28;20427;-79
2023/09/25 11:25:50;;;;;;;14.97;1.50;;;;;;;;;;5082561;28;20439;-81
2023/09/25 11:28:17;;;;;;;14.20;1.30;;;;;;;;;;5080879;28;20530;-79
2023/09/25 11:30:47;;;;;;;14.50;1.50;;;;;;;;;;5072090;28;20496;-79
2023/09/25 11:33:15;;;;;;;14.30;1.40;;;;;;;;;;5070995;28;20485;-79
2023/09/25 11:35:43;;;;;;;14.90;1.60;;;;;;;;;;5064334;28;20417;-79
2023/09/25 11:38:12;;;;;;;14.90;1.30;;;;;;;;;;5072591;28;20443;-79
2023/09/25 11:40:39;;;;;;;14.20;1.20;;;;;;;;;;5087527;28;20781;-79
2023/09/25 11:43:07;;;;;;;15.10;1.70;;;;;;;;;;5077705;28;20461;-81
2023/09/25 11:45:34;;;;;;;14.10;1.40;;;;;;;;;;5063590;28;20512;-80
2023/09/25 11:48:01;;;;;;;14.38;1.20;;;;;;;;;;5080512;28;20415;-80
2023/09/25 11:50:28;;;;;;;15.00;1.30;;;;;;;;;;5066101;28;20439;-79
2023/09/25 11:52:54;;;;;;;14.35;1.20;;;;;;;;;;5073377;28;20520;-80
2023/09/25 11:55:23;;;;;;;14.65;1.77;;;;;;;;;;5073708;28;20426;-80
2023/09/25 11:57:49;;;;;;;14.50;1.50;;;;;;;;;;5067734;28;20413;-81
2023/09/25 12:00:18;;;;;;;14.00;1.20;;;;;;;;;;5072905;28;20407;-81
2023/09/25 12:02:47;;;;;;;14.30;1.40;;;;;;;;;;5083823;28;20819;-82
2023/09/25 12:05:14;;;;;;;15.90;1.30;;;;;;;;;;5080448;28;20453;-81
2023/09/25 12:07:43;;;;;;;15.48;1.70;;;;;;;;;;5073506;28;20498;-81
2023/09/25 12:10:12;;;;;;;14.15;1.30;;;;;;;;;;5061281;28;20428;-81
2023/09/25 12:12:41;;;;;;;14.40;1.40;;;;;;;;;;5062786;28;20396;-79
2023/09/25 12:15:08;;;;;;;14.82;1.60;;;;;;;;;;5066652;28;20405;-80
2023/09/25 12:17:35;;;;;;;14.95;1.70;;;;;;;;;;5069669;28;20420;-80
2023/09/25 12:20:23;;;;;;;14.90;1.50;;;;;;;;;;5078952;28;20683;-80
2023/09/25 12:22:54;;;;;;;14.33;1.30;;;;;;;;;;5064572;28;21105;-80
2023/09/25 12:25:22;;;;;;;15.80;1.30;;;;;;;;;;5079728;28;20463;-80
2023/09/25 12:27:51;;;;;;;15.45;1.50;;;;;;;;;;5059685;28;20410;-82
2023/09/25 12:30:19;;;;;;;14.88;1.35;;;;;;;;;;5052617;28;20425;-81
2023/09/25 12:32:47;;;;;;;14.70;1.60;;;;;;;;;;5059071;28;20416;-78
2023/09/25 12:35:15;;;;;;;14.55;1.60;;;;;;;;;;5073064;28;20399;-80
2023/09/25 12:37:42;;;;;;;14.10;1.40;;;;;;;;;;5071550;28;20399;-79
2023/09/25 12:40:09;;;;;;;14.30;1.40;;;;;;;;;;5076059;28;20487;-82
2023/09/25 12:42:37;;;;;;;14.30;1.30;;;;;;;;;;5078912;28;20472;-81
2023/09/25 12:45:21;;;;;;;13.88;1.25;;;;;;;;;;5064305;28;20435;-80
2023/09/25 12:47:49;;;;;;;15.80;1.40;;;;;;;;;;5078373;28;20504;-80
2023/09/25 12:50:16;;;;;;;14.77;1.30;;;;;;;;;;5066410;28;20405;-81
2023/09/25 12:52:43;;;;;;;14.70;1.40;;;;;;;;;;5077771;28;20897;-79
2023/09/25 12:55:09;;;;;;;13.75;1.30;;;;;;;;;;5067937;28;20512;-79
2023/09/25 12:57:36;;;;;;;15.50;1.40;;;;;;;;;;5077026;28;20463;-78
2023/09/25 13:00:04;;;;;;;14.23;1.50;;;;;;;;;;5070718;28;20409;-79
2023/09/25 13:02:35;;;;;;;14.10;1.27;;;;;;;;;;5068629;28;20467;-81
2023/09/25 13:05:01;;;;;;;13.80;1.30;;;;;;;;;;5076332;28;20501;-82
2023/09/25 13:07:28;;;;;;;14.93;1.50;;;;;;;;;;5063843;28;20973;-79
2023/09/25 13:09:55;;;;;;;14.10;1.27;;;;;;;;;;5060420;28;20403;-81
2023/09/25 13:12:22;;;;;;;15.18;1.25;;;;;;;;;;5064574;28;20543;-80
2023/09/25 13:14:49;;;;;;;13.90;1.20;;;;;;;;;;5073300;28;20452;-79
2023/09/25 13:17:16;;;;;;;14.88;1.70;;;;;;;;;;5071608;28;20944;-80
2023/09/25 13:19:44;;;;;;;14.60;1.80;;;;;;;;;;5066641;28;20406;-79
2023/09/25 13:22:11;;;;;;;14.27;1.50;;;;;;;;;;5071796;28;20437;-80
2023/09/25 13:24:58;;;;;;;14.63;1.50;;;;;;;;;;5077561;28;20892;-80
2023/09/25 13:27:25;;;;;;;14.20;1.33;;;;;;;;;;5077741;28;20413;-80
2023/09/25 13:29:52;;;;;;;15.90;1.83;;;;;;;;;;5058103;28;20419;-79
2023/09/25 13:32:19;;;;;;;14.38;1.50;;;;;;;;;;5042292;28;20453;-79
2023/09/25 13:34:47;;;;;;;14.27;1.42;;;;;;;;;;5075878;28;20861;-80
2023/09/25 13:37:14;;;;;;;14.20;1.55;;;;;;;;;;5073059;28;20433;-79
2023/09/25 13:39:42;;;;;;;14.60;1.80;;;;;;;;;;5071968;28;20416;-82
2023/09/25 13:42:11;;;;;;;13.80;1.20;;;;;;;;;;5064158;28;20425;-79
2023/09/25 13:44:38;;;;;;;14.10;1.30;;;;;;;;;;5065420;28;20979;-80
2023/09/25 13:47:05;;;;;;;13.95;1.40;;;;;;;;;;5073466;28;20423;-79
2023/09/25 13:49:32;;;;;;;14.30;1.48;;;;;;;;;;5067260;28;20502;-79
2023/09/25 13:52:00;;;;;;;14.57;1.77;;;;;;;;;;5077637;28;20729;-79
2023/09/25 13:54:27;;;;;;;14.82;1.30;;;;;;;;;;5066777;28;20469;-79
2023/09/25 13:56:56;;;;;;;15.85;1.40;;;;;;;;;;5081843;28;20439;-77
2023/09/25 13:59:22;;;;;;;14.05;1.20;;;;;;;;;;5071300;28;20417;-80
2023/09/25 14:01:49;;;;;;;14.50;1.70;;;;;;;;;;5083334;28;20807;-79
2023/09/25 14:04:16;;;;;;;14.50;1.40;;;;;;;;;;5081488;28;20422;-80
2023/09/25 14:06:44;;;;;;;15.70;1.40;;;;;;;;;;5078133;28;20432;-80
2023/09/25 14:09:13;;;;;;;14.63;1.52;;;;;;;;;;5075152;28;20421;-80
2023/09/25 14:11:39;;;;;;;14.80;1.50;;;;;;;;;;5067817;28;20403;-78
2023/09/25 14:14:08;;;;;;;15.13;1.50;;;;;;;;;;5072023;28;20411;-78
2023/09/25 14:16:35;;;;;;;14.57;1.50;;;;;;;;;;5066870;28;20492;-79
2023/09/25 14:19:02;;;;;;;14.55;1.40;;;;;;;;;;5072936;28;20438;-79
2023/09/25 14:21:29;;;;;;;14.53;1.50;;;;;;;;;;5076626;28;20409;-79
2023/09/25 14:23:56;;;;;;;14.80;1.30;;;;;;;;;;5060503;28;20907;-80
2023/09/25 14:26:24;;;;;;;17.95;1.48;;;;;;;;;;5076465;28;20399;-80
2023/09/25 14:28:51;;;;;;;14.50;1.60;;;;;;;;;;5045945;28;21063;-78
2023/09/25 14:31:18;;;;;;;15.73;1.40;;;;;;;;;;5078482;28;20582;-79
2023/09/25 14:33:45;;;;;;;14.20;1.42;;;;;;;;;;5081160;28;20408;-79
2023/09/25 14:36:12;;;;;;;14.10;1.48;;;;;;;;;;5078967;28;20902;-80